Time;durP1;ratioP1;P1;durP2;ratioP2;P2;SDS_P1;SDS_P2;PMS_P1;PMS_P2;Temp;Humidity;BMP_temperature;BMP_pressure;BME280_temperature;BME280_humidity;BME280_pressure;Samples;Min_cycle;Max_cycle;Signal;HPM_P1;HPM_P2
2023/10/05 00:02:10;;;;;;;2.43;2.20;;;17.40;53.80;;;;;;4996997;28;20472;-48
2023/10/05 00:04:41;;;;;;;3.33;2.37;;;17.40;54.10;;;;;;4993343;28;20543;-45
2023/10/05 00:07:10;;;;;;;3.70;2.77;;;17.40;54.20;;;;;;4990033;28;20442;-46
2023/10/05 00:09:36;;;;;;;5.73;2.90;;;17.40;54.00;;;;;;4996341;28;20477;-44
2023/10/05 00:12:05;;;;;;;3.47;2.47;;;17.40;53.80;;;;;;4995275;28;20430;-45
2023/10/05 00:14:30;;;;;;;6.83;2.70;;;17.40;53.80;;;;;;4980991;28;20449;-46
2023/10/05 00:16:56;;;;;;;8.40;2.93;;;17.30;54.00;;;;;;4996593;28;20488;-44
2023/10/05 00:19:26;;;;;;;3.40;3.10;;;17.30;54.00;;;;;;5005276;28;20190;-45
2023/10/05 00:21:51;;;;;;;5.13;2.57;;;17.30;53.90;;;;;;4996734;28;20217;-45
2023/10/05 00:24:20;;;;;;;2.30;2.10;;;17.20;53.70;;;;;;4988215;28;21098;-47
2023/10/05 00:26:46;;;;;;;4.47;2.70;;;17.20;53.70;;;;;;4994545;28;20274;-45
2023/10/05 00:31:44;;;;;;;4.10;2.37;;;17.20;53.60;;;;;;5001769;28;20805;-45
2023/10/05 00:34:28;;;;;;;2.80;2.43;;;17.20;53.70;;;;;;4997764;28;20440;-45
2023/10/05 00:36:58;;;;;;;9.20;2.43;;;17.10;53.50;;;;;;5004731;28;20433;-45
2023/10/05 00:39:25;;;;;;;2.97;2.67;;;17.00;54.00;;;;;;5005881;28;20484;-44
2023/10/05 00:44:34;;;;;;;4.70;2.47;;;16.90;54.50;;;;;;5002377;28;20491;-47
2023/10/05 00:47:01;;;;;;;3.23;2.30;;;16.90;54.60;;;;;;4997692;28;20469;-44
2023/10/05 00:49:41;;;;;;;3.00;2.70;;;16.90;54.70;;;;;;4990511;28;20826;-44
2023/10/05 00:52:13;;;;;;;3.07;2.77;;;16.90;54.70;;;;;;4999131;28;20975;-44
2023/10/05 00:54:40;;;;;;;5.90;2.40;;;16.80;54.90;;;;;;4993578;28;20462;-46
2023/10/05 00:57:12;;;;;;;3.83;2.97;;;16.90;54.90;;;;;;4984149;28;20481;-45
2023/10/05 00:59:38;;;;;;;4.80;2.10;;;16.80;55.10;;;;;;4998060;28;20531;-46
2023/10/05 01:02:08;;;;;;;3.83;2.20;;;16.80;55.00;;;;;;4998858;28;20572;-45
2023/10/05 01:04:35;;;;;;;4.70;2.50;;;16.60;55.40;;;;;;5001099;28;20230;-46
2023/10/05 01:07:26;;;;;;;5.07;2.87;;;16.60;55.50;;;;;;4999289;28;20892;-44
2023/10/05 01:14:51;;;;;;;7.50;2.33;;;16.60;55.80;;;;;;5000651;28;20490;-51
2023/10/05 01:17:20;;;;;;;3.80;2.43;;;16.60;56.00;;;;;;4994814;28;20285;-47
2023/10/05 01:19:50;;;;;;;2.50;2.30;;;16.60;55.70;;;;;;4989875;28;20441;-47
2023/10/05 01:22:17;;;;;;;2.93;2.20;;;16.60;55.70;;;;;;5001556;28;20445;-48
2023/10/05 01:24:45;;;;;;;4.60;2.23;;;16.50;55.70;;;;;;5003244;28;20485;-47
2023/10/05 01:27:11;;;;;;;3.10;1.90;;;16.40;56.00;;;;;;5000193;28;20885;-46
2023/10/05 01:29:36;;;;;;;2.93;2.63;;;16.30;56.10;;;;;;4997154;28;20441;-50
2023/10/05 01:32:02;;;;;;;3.27;2.17;;;16.30;56.20;;;;;;4990855;28;20655;-47
2023/10/05 01:34:28;;;;;;;3.30;2.73;;;16.40;56.20;;;;;;4995238;28;20261;-48
2023/10/05 01:36:54;;;;;;;2.80;2.40;;;16.40;55.70;;;;;;4984779;28;20853;-49
2023/10/05 01:39:21;;;;;;;3.40;2.20;;;16.30;55.90;;;;;;4988209;28;20195;-47
2023/10/05 01:41:48;;;;;;;5.17;2.53;;;16.30;56.00;;;;;;4984375;28;20540;-46
2023/10/05 01:44:14;;;;;;;3.80;2.60;;;16.40;55.80;;;;;;4979120;28;20881;-48
2023/10/05 01:46:40;;;;;;;2.80;2.47;;;16.40;56.00;;;;;;4996719;28;22537;-45
2023/10/05 01:49:06;;;;;;;2.33;2.13;;;16.40;55.90;;;;;;4979256;28;20453;-50
2023/10/05 01:51:31;;;;;;;5.60;2.30;;;16.30;55.80;;;;;;4991369;28;20437;-51
2023/10/05 01:54:11;;;;;;;3.50;2.23;;;16.10;56.80;;;;;;4993830;28;20202;-48
2023/10/05 01:56:37;;;;;;;3.00;2.37;;;16.00;57.40;;;;;;4996789;28;20276;-45
2023/10/05 01:59:07;;;;;;;5.30;2.97;;;16.10;57.70;;;;;;4990565;28;20561;-48
2023/10/05 02:01:37;;;;;;;5.13;2.73;;;16.20;57.20;;;;;;4985549;28;20438;-49
2023/10/05 02:04:03;;;;;;;4.70;2.07;;;16.20;56.80;;;;;;4988397;28;20858;-45
2023/10/05 02:06:39;;;;;;;3.07;2.67;;;16.30;56.50;;;;;;4987681;28;20446;-51
2023/10/05 02:09:04;;;;;;;5.20;2.47;;;16.20;57.00;;;;;;5001068;28;20789;-45
2023/10/05 02:11:30;;;;;;;7.00;2.63;;;16.30;56.90;;;;;;4990232;28;20443;-47
2023/10/05 02:14:04;;;;;;;2.40;2.20;;;16.30;56.60;;;;;;4992489;28;20233;-50
2023/10/05 02:16:30;;;;;;;7.33;2.47;;;16.40;56.90;;;;;;4990984;28;20278;-48
2023/10/05 02:18:56;;;;;;;4.73;2.30;;;16.50;56.20;;;;;;4996127;28;20536;-50
2023/10/05 02:21:35;;;;;;;3.60;2.23;;;16.50;55.70;;;;;;4983381;28;20964;-48
2023/10/05 02:24:18;;;;;;;8.30;2.70;;;16.40;55.60;;;;;;4995644;28;20541;-49
2023/10/05 02:29:18;;;;;;;4.50;2.40;;;16.40;56.20;;;;;;4992737;28;20456;-49
2023/10/05 02:34:28;;;;;;;4.30;2.90;;;16.70;56.20;;;;;;5000186;28;20194;-51
2023/10/05 02:36:54;;;;;;;3.10;2.60;;;16.80;55.80;;;;;;4991973;28;20457;-51
2023/10/05 02:39:22;;;;;;;3.70;2.63;;;16.80;55.10;;;;;;4989875;28;20453;-48
2023/10/05 02:41:50;;;;;;;3.90;2.30;;;16.80;55.00;;;;;;4990082;28;20454;-47
2023/10/05 02:46:48;;;;;;;32.30;2.97;;;16.90;54.80;;;;;;4982527;28;20442;-49
2023/10/05 02:49:22;;;;;;;3.90;2.70;;;16.90;54.30;;;;;;4979900;28;20853;-45
2023/10/05 02:51:49;;;;;;;3.83;2.80;;;16.80;54.00;;;;;;4982302;28;20198;-51
2023/10/05 02:54:15;;;;;;;3.10;2.33;;;16.60;55.20;;;;;;4982106;28;20797;-45
2023/10/05 02:56:41;;;;;;;2.90;2.60;;;16.70;55.10;;;;;;4986603;28;21046;-47
2023/10/05 02:59:08;;;;;;;2.53;2.23;;;16.50;55.10;;;;;;4992857;28;20453;-50
2023/10/05 03:01:37;;;;;;;4.00;2.60;;;16.50;55.80;;;;;;4996528;28;20205;-45
2023/10/05 03:04:16;;;;;;;3.00;2.20;;;16.60;55.70;;;;;;5003862;28;20483;-46
2023/10/05 03:06:45;;;;;;;2.30;2.13;;;16.40;55.40;;;;;;4993652;28;20442;-48
2023/10/05 03:09:10;;;;;;;4.30;2.40;;;16.40;55.90;;;;;;5008562;28;20456;-45
2023/10/05 03:11:41;;;;;;;2.77;2.30;;;16.60;55.40;;;;;;4997653;28;20441;-50
2023/10/05 03:14:11;;;;;;;4.03;2.63;;;16.60;55.20;;;;;;4995445;28;20199;-44
2023/10/05 03:16:44;;;;;;;3.93;2.27;;;16.60;55.50;;;;;;5003799;28;20565;-45
2023/10/05 03:19:15;;;;;;;2.03;1.83;;;16.60;55.30;;;;;;4998785;28;20949;-45
2023/10/05 03:21:41;;;;;;;3.73;2.30;;;16.50;55.70;;;;;;5001176;28;20960;-48
2023/10/05 03:24:13;;;;;;;3.40;2.70;;;16.50;55.80;;;;;;4991346;28;20488;-45
2023/10/05 03:26:40;;;;;;;3.07;2.13;;;16.40;55.70;;;;;;4992906;28;20729;-49
2023/10/05 03:29:07;;;;;;;2.57;2.23;;;16.50;56.20;;;;;;4993560;28;20445;-46
2023/10/05 03:31:37;;;;;;;2.73;2.30;;;16.40;56.10;;;;;;4992300;28;20809;-48
2023/10/05 03:34:07;;;;;;;3.63;2.20;;;16.50;55.90;;;;;;4995775;28;20799;-48
2023/10/05 03:36:33;;;;;;;4.07;2.63;;;16.10;55.80;;;;;;4988272;28;20450;-46
2023/10/05 03:39:03;;;;;;;5.57;2.60;;;16.10;56.80;;;;;;4984753;28;21052;-46
2023/10/05 03:41:29;;;;;;;2.97;2.67;;;16.10;56.80;;;;;;4987172;28;20455;-50
2023/10/05 03:43:55;;;;;;;5.13;2.50;;;16.30;56.30;;;;;;4986025;28;20937;-47
2023/10/05 03:46:25;;;;;;;10.47;2.33;;;16.30;56.60;;;;;;4994204;28;20703;-45
2023/10/05 03:48:52;;;;;;;4.43;2.37;;;16.40;56.50;;;;;;5001406;28;20437;-47
2023/10/05 03:51:18;;;;;;;5.67;2.53;;;16.30;56.30;;;;;;4982300;28;20657;-45
2023/10/05 03:53:48;;;;;;;3.30;2.30;;;16.30;56.60;;;;;;4988305;28;21000;-45
2023/10/05 03:56:18;;;;;;;5.43;2.67;;;16.40;56.00;;;;;;4988914;28;20246;-48
2023/10/05 03:58:45;;;;;;;3.10;2.13;;;16.50;55.40;;;;;;4983126;28;20453;-50
2023/10/05 04:01:12;;;;;;;3.67;2.20;;;16.60;54.80;;;;;;4980847;28;20454;-44
2023/10/05 04:03:38;;;;;;;4.07;2.40;;;16.60;55.40;;;;;;4977656;28;20445;-48
2023/10/05 04:06:24;;;;;;;2.53;2.00;;;16.70;55.40;;;;;;4982393;28;20485;-45
2023/10/05 04:08:59;;;;;;;4.83;2.63;;;16.80;54.90;;;;;;4979491;28;20548;-46
2023/10/05 04:11:29;;;;;;;3.50;2.63;;;16.80;55.00;;;;;;4989738;28;20441;-47
2023/10/05 04:13:55;;;;;;;3.80;3.00;;;16.90;54.90;;;;;;4987361;28;20446;-46
2023/10/05 04:16:26;;;;;;;3.97;2.47;;;16.90;54.50;;;;;;4993474;28;21008;-47
2023/10/05 04:18:52;;;;;;;2.83;2.20;;;16.90;54.60;;;;;;4998636;28;20451;-46
2023/10/05 04:21:19;;;;;;;4.17;2.40;;;16.90;54.40;;;;;;4988943;28;20500;-45
2023/10/05 04:23:52;;;;;;;4.80;2.73;;;17.00;53.90;;;;;;4989867;28;20516;-45
2023/10/05 04:26:19;;;;;;;4.87;2.53;;;17.00;53.60;;;;;;4983596;28;20455;-44
2023/10/05 04:28:52;;;;;;;2.93;2.63;;;16.90;53.70;;;;;;4978499;28;22466;-45
2023/10/05 04:31:25;;;;;;;3.17;2.17;;;16.90;53.50;;;;;;4979515;28;20445;-46
2023/10/05 04:33:52;;;;;;;3.17;2.87;;;17.00;53.70;;;;;;4979632;28;21032;-45
2023/10/05 04:36:24;;;;;;;2.87;2.63;;;16.90;54.00;;;;;;4978896;28;20449;-44
2023/10/05 04:38:54;;;;;;;2.47;2.23;;;16.80;54.40;;;;;;4979601;28;20461;-48
2023/10/05 04:41:33;;;;;;;2.93;2.70;;;16.60;54.20;;;;;;4978179;28;20438;-46
2023/10/05 04:44:00;;;;;;;6.80;2.80;;;16.40;54.80;;;;;;4981877;28;21162;-44
2023/10/05 04:46:28;;;;;;;4.57;2.80;;;16.10;55.00;;;;;;5006247;28;20445;-45
2023/10/05 04:49:10;;;;;;;3.50;2.13;;;16.00;55.40;;;;;;4994310;28;20836;-49
2023/10/05 04:51:38;;;;;;;3.43;2.47;;;15.80;55.90;;;;;;4981295;28;20441;-45
2023/10/05 04:54:10;;;;;;;3.27;2.73;;;15.50;56.60;;;;;;4994159;28;20552;-44
2023/10/05 05:04:27;;;;;;;2.53;2.30;;;15.00;58.40;;;;;;4997003;28;20483;-44
2023/10/05 05:06:59;;;;;;;3.83;2.83;;;15.00;58.50;;;;;;4995783;28;21247;-46
2023/10/05 05:09:29;;;;;;;3.03;2.50;;;14.80;58.80;;;;;;4995342;28;20575;-46
2023/10/05 05:11:56;;;;;;;2.43;2.10;;;14.80;59.20;;;;;;5001839;28;20448;-46
2023/10/05 05:14:23;;;;;;;4.50;2.90;;;14.70;59.00;;;;;;5001317;28;20452;-44
2023/10/05 05:16:52;;;;;;;2.80;2.60;;;14.80;59.00;;;;;;4999856;28;20452;-44
2023/10/05 05:19:17;;;;;;;4.63;3.57;;;14.60;59.20;;;;;;4997792;28;20462;-44
2023/10/05 05:21:43;;;;;;;6.17;3.00;;;14.50;59.70;;;;;;4995800;28;20448;-45
2023/10/05 05:24:11;;;;;;;3.50;2.80;;;14.40;60.20;;;;;;5004673;28;20654;-44
2023/10/05 05:26:37;;;;;;;21.23;4.10;;;14.10;61.30;;;;;;5003667;28;20202;-46
2023/10/05 05:29:03;;;;;;;11.93;3.10;;;14.40;62.40;;;;;;4999638;28;20438;-45
2023/10/05 05:31:30;;;;;;;8.10;3.13;;;14.80;63.50;;;;;;4991032;28;20289;-44
2023/10/05 05:33:56;;;;;;;3.27;2.63;;;15.10;61.80;;;;;;4996638;28;20437;-48
2023/10/05 05:36:22;;;;;;;10.63;3.27;;;15.40;59.80;;;;;;4993056;28;20815;-46
2023/10/05 05:38:47;;;;;;;4.30;3.60;;;15.50;58.50;;;;;;4988132;28;20206;-46
2023/10/05 05:41:27;;;;;;;7.40;3.40;;;15.80;58.10;;;;;;4995060;28;20200;-45
2023/10/05 05:43:53;;;;;;;4.30;3.10;;;15.90;57.20;;;;;;4983336;28;20603;-43
2023/10/05 05:46:19;;;;;;;4.10;3.30;;;16.10;56.80;;;;;;4993565;28;20461;-44
2023/10/05 05:48:48;;;;;;;3.83;3.43;;;16.20;56.60;;;;;;4985518;28;20453;-46
2023/10/05 05:51:15;;;;;;;5.27;2.47;;;16.20;55.90;;;;;;4990272;28;20517;-44
2023/10/05 05:53:44;;;;;;;4.03;2.83;;;16.40;56.00;;;;;;4988840;28;20473;-46
2023/10/05 05:56:19;;;;;;;3.03;2.57;;;16.60;55.60;;;;;;4997483;28;20488;-46
2023/10/05 05:58:50;;;;;;;3.07;2.57;;;16.80;55.00;;;;;;4990155;28;20481;-44
2023/10/05 06:01:16;;;;;;;3.27;2.57;;;17.00;54.50;;;;;;4998337;28;20516;-45
2023/10/05 06:03:44;;;;;;;3.20;2.83;;;17.00;54.00;;;;;;5000482;28;20445;-44
2023/10/05 06:06:10;;;;;;;6.27;2.83;;;16.70;54.50;;;;;;4992900;28;20825;-44
2023/10/05 06:08:35;;;;;;;5.53;3.10;;;16.70;55.10;;;;;;4990736;28;20528;-47
2023/10/05 06:11:06;;;;;;;6.70;3.30;;;16.50;55.00;;;;;;5000680;28;20301;-44
2023/10/05 06:13:36;;;;;;;3.90;2.60;;;16.20;55.80;;;;;;4999772;28;20197;-46
2023/10/05 06:16:03;;;;;;;5.53;3.13;;;16.10;56.30;;;;;;4990967;28;20454;-46
2023/10/05 06:18:31;;;;;;;3.03;2.73;;;16.20;56.10;;;;;;4991979;28;20533;-44
2023/10/05 06:20:56;;;;;;;3.33;2.50;;;16.30;56.10;;;;;;4988514;28;20446;-45
2023/10/05 06:23:22;;;;;;;3.30;2.67;;;16.60;55.70;;;;;;4994086;28;20548;-44
2023/10/05 06:25:48;;;;;;;2.60;2.40;;;16.60;55.10;;;;;;4992526;28;20638;-49
2023/10/05 06:28:14;;;;;;;7.27;3.17;;;16.80;55.20;;;;;;4987506;28;20218;-45
2023/10/05 06:30:39;;;;;;;5.07;3.23;;;16.70;54.80;;;;;;4996143;28;20190;-45
2023/10/05 06:33:07;;;;;;;5.20;3.87;;;16.80;55.20;;;;;;4992335;28;20293;-45
2023/10/05 06:35:33;;;;;;;5.97;3.03;;;16.80;54.90;;;;;;5003226;28;20233;-47
2023/10/05 06:37:58;;;;;;;3.70;2.80;;;16.90;54.80;;;;;;4999946;28;20485;-44
2023/10/05 06:40:25;;;;;;;7.47;2.90;;;17.10;54.50;;;;;;4989604;28;20207;-46
2023/10/05 06:42:51;;;;;;;4.37;3.30;;;17.20;54.50;;;;;;4991431;28;20269;-44
2023/10/05 06:45:19;;;;;;;4.47;2.57;;;17.30;54.20;;;;;;4988646;28;20497;-46
2023/10/05 06:47:45;;;;;;;3.73;2.40;;;17.50;54.40;;;;;;4986075;28;20441;-45
2023/10/05 06:50:11;;;;;;;4.80;2.57;;;17.70;54.20;;;;;;4986704;28;20465;-45
2023/10/05 06:52:43;;;;;;;5.03;2.80;;;17.90;53.70;;;;;;4996017;28;20453;-47
2023/10/05 06:55:11;;;;;;;4.00;2.73;;;18.00;53.30;;;;;;4983804;28;20520;-48
2023/10/05 06:57:38;;;;;;;3.40;2.87;;;18.00;53.50;;;;;;4988996;28;20457;-46
2023/10/05 07:00:11;;;;;;;4.83;2.40;;;18.10;52.90;;;;;;4985409;28;20453;-45
2023/10/05 07:02:39;;;;;;;5.40;2.90;;;18.20;52.70;;;;;;4982929;28;20534;-44
2023/10/05 07:05:07;;;;;;;3.53;3.10;;;18.30;52.60;;;;;;4989649;28;20470;-45
2023/10/05 07:07:37;;;;;;;3.20;2.50;;;18.40;52.30;;;;;;4996424;28;20442;-44
2023/10/05 07:10:03;;;;;;;5.13;3.17;;;18.40;52.30;;;;;;4987988;28;20471;-46
2023/10/05 07:12:31;;;;;;;3.57;2.33;;;18.40;52.90;;;;;;4983430;28;20453;-45
2023/10/05 07:14:56;;;;;;;3.33;2.43;;;18.50;52.20;;;;;;4984861;28;20452;-45
2023/10/05 07:17:22;;;;;;;5.17;2.90;;;18.60;52.00;;;;;;4992494;28;20445;-46
2023/10/05 07:19:49;;;;;;;4.33;3.10;;;18.60;52.10;;;;;;4984403;28;20210;-45
2023/10/05 07:22:16;;;;;;;6.07;2.57;;;18.70;52.20;;;;;;4986495;28;20273;-46
2023/10/05 07:24:42;;;;;;;5.20;2.90;;;18.70;52.10;;;;;;4986964;28;20488;-46
2023/10/05 07:27:07;;;;;;;3.90;3.13;;;18.50;52.00;;;;;;4999332;28;20445;-46
2023/10/05 07:29:34;;;;;;;4.97;2.80;;;18.40;53.00;;;;;;4989952;28;20213;-47
2023/10/05 07:32:00;;;;;;;4.53;2.60;;;18.40;53.20;;;;;;4984589;28;20194;-46
2023/10/05 07:34:27;;;;;;;7.70;3.20;;;18.40;53.30;;;;;;4991236;28;20442;-46
2023/10/05 07:36:54;;;;;;;6.10;3.67;;;18.20;53.10;;;;;;4985371;28;20449;-48
2023/10/05 07:39:23;;;;;;;4.20;3.13;;;18.40;53.30;;;;;;4994471;28;20428;-46
2023/10/05 07:41:49;;;;;;;3.57;3.20;;;18.40;52.90;;;;;;4987488;28;20442;-44
2023/10/05 07:44:15;;;;;;;4.23;3.50;;;18.10;53.60;;;;;;4987271;28;20798;-47
2023/10/05 07:46:43;;;;;;;5.80;3.60;;;18.10;54.20;;;;;;4989338;28;20430;-44
2023/10/05 07:49:09;;;;;;;8.63;3.60;;;18.20;54.00;;;;;;4990952;28;20460;-44
2023/10/05 07:51:35;;;;;;;5.70;3.50;;;18.00;54.10;;;;;;4985057;28;20453;-46
2023/10/05 07:54:00;;;;;;;6.90;3.43;;;18.20;54.60;;;;;;4985734;28;20445;-48
2023/10/05 07:56:26;;;;;;;7.40;3.87;;;18.40;54.10;;;;;;4986882;28;20256;-48
2023/10/05 07:58:52;;;;;;;5.13;3.47;;;18.30;54.00;;;;;;4985825;28;21588;-48
2023/10/05 08:01:18;;;;;;;3.87;3.57;;;18.50;54.20;;;;;;4984228;28;20202;-46
2023/10/05 08:03:46;;;;;;;5.47;3.80;;;18.80;53.60;;;;;;4994239;28;20195;-46
2023/10/05 08:06:15;;;;;;;5.90;3.57;;;19.00;53.40;;;;;;4982242;28;20871;-48
2023/10/05 08:08:47;;;;;;;5.57;3.10;;;18.90;53.10;;;;;;4977559;28;20995;-45
2023/10/05 08:11:13;;;;;;;4.07;3.07;;;19.00;53.20;;;;;;4985772;28;20530;-46
2023/10/05 08:13:42;;;;;;;4.87;3.23;;;18.90;53.40;;;;;;4988253;28;20458;-47
2023/10/05 08:16:08;;;;;;;6.37;2.90;;;19.00;52.90;;;;;;4985410;28;20453;-48
2023/10/05 08:18:34;;;;;;;4.93;3.27;;;19.10;52.60;;;;;;4989063;28;20462;-46
2023/10/05 08:21:00;;;;;;;4.77;3.20;;;19.10;52.40;;;;;;4986528;28;20191;-47
2023/10/05 08:23:28;;;;;;;6.40;3.37;;;19.30;52.40;;;;;;4996722;28;20438;-47
2023/10/05 08:25:57;;;;;;;4.90;3.83;;;19.50;52.30;;;;;;4989017;28;20744;-50
2023/10/05 08:28:24;;;;;;;4.13;2.80;;;19.60;51.70;;;;;;4989680;28;20445;-49
2023/10/05 08:31:05;;;;;;;3.97;2.73;;;19.80;51.40;;;;;;4989951;28;20450;-45
2023/10/05 08:33:34;;;;;;;2.70;2.50;;;19.90;51.00;;;;;;5000940;28;20522;-45
2023/10/05 08:36:06;;;;;;;6.33;2.93;;;20.00;50.70;;;;;;4985555;28;20437;-45
2023/10/05 08:38:35;;;;;;;3.60;2.90;;;20.20;50.40;;;;;;4985742;28;20440;-45
2023/10/05 08:41:07;;;;;;;4.03;2.67;;;20.20;50.40;;;;;;4984098;28;20452;-49
2023/10/05 08:43:37;;;;;;;7.10;3.17;;;20.40;50.10;;;;;;4994094;28;20521;-46
2023/10/05 08:46:05;;;;;;;4.50;3.00;;;20.50;49.90;;;;;;4989836;28;21608;-45
2023/10/05 08:48:35;;;;;;;3.90;2.80;;;20.60;49.70;;;;;;5003137;28;20948;-47
2023/10/05 08:51:12;;;;;;;5.53;3.50;;;20.70;49.30;;;;;;4991623;28;20449;-48
2023/10/05 08:53:57;;;;;;;6.53;3.17;;;20.70;49.10;;;;;;4997578;28;20461;-49
2023/10/05 08:56:24;;;;;;;2.90;2.60;;;20.70;48.90;;;;;;4990412;28;20481;-48
2023/10/05 08:58:52;;;;;;;5.50;3.30;;;20.70;48.70;;;;;;4999504;28;21082;-48
2023/10/05 09:01:29;;;;;;;4.30;3.53;;;20.80;49.00;;;;;;4992118;28;20465;-45
2023/10/05 09:06:57;;;;;;;4.30;2.70;;;20.90;48.60;;;;;;4969885;28;20469;-46
2023/10/05 09:09:37;;;;;;;4.60;2.87;;;21.10;48.90;;;;;;4980151;28;20457;-47
2023/10/05 09:15:22;;;;;;;7.10;3.40;;;21.50;48.20;;;;;;4999503;28;20466;-49
2023/10/05 09:20:38;;;;;;;14.50;3.93;;;21.80;46.90;;;;;;4996189;28;20461;-45
2023/10/05 09:23:09;;;;;;;7.07;3.50;;;22.00;47.00;;;;;;4999149;28;20450;-45
2023/10/05 09:25:44;;;;;;;5.63;2.97;;;22.10;46.60;;;;;;4991946;28;20492;-45
2023/10/05 09:28:19;;;;;;;8.93;3.33;;;22.20;46.60;;;;;;4986068;28;21090;-48
2023/10/05 09:30:59;;;;;;;6.67;3.57;;;22.30;46.40;;;;;;4989690;28;20499;-49
2023/10/05 09:33:34;;;;;;;6.40;3.47;;;22.40;46.70;;;;;;4994886;28;20480;-49
2023/10/05 09:36:22;;;;;;;5.13;3.30;;;22.40;46.30;;;;;;4996814;28;20453;-45
2023/10/05 09:38:48;;;;;;;8.60;3.40;;;22.50;46.30;;;;;;4988874;28;20480;-47
2023/10/05 09:41:19;;;;;;;6.40;3.60;;;22.50;46.20;;;;;;4989518;28;20477;-46
2023/10/05 09:43:58;;;;;;;9.43;4.10;;;22.60;46.50;;;;;;4992030;28;20654;-46
2023/10/05 09:46:27;;;;;;;5.23;3.60;;;22.60;46.50;;;;;;4996793;28;20487;-46
2023/10/05 09:48:53;;;;;;;10.87;4.20;;;22.60;46.20;;;;;;4994967;28;20465;-47
2023/10/05 09:51:19;;;;;;;6.10;3.73;;;22.50;46.40;;;;;;4990625;28;20441;-48
2023/10/05 09:53:51;;;;;;;8.60;3.90;;;22.40;46.50;;;;;;4992377;28;20454;-46
2023/10/05 09:56:20;;;;;;;7.17;4.07;;;22.30;47.00;;;;;;4984348;28;20477;-45
2023/10/05 09:58:46;;;;;;;6.93;3.63;;;22.50;46.90;;;;;;4993303;28;20441;-48
2023/10/05 10:01:14;;;;;;;6.13;3.70;;;22.60;46.30;;;;;;4996142;28;20430;-47
2023/10/05 10:03:45;;;;;;;11.10;3.70;;;22.80;46.50;;;;;;4993347;28;20452;-46
2023/10/05 10:06:13;;;;;;;5.73;3.60;;;22.80;46.60;;;;;;4982907;28;21061;-48
2023/10/05 10:08:55;;;;;;;6.90;4.23;;;22.70;46.40;;;;;;4987153;28;20477;-46
2023/10/05 10:11:27;;;;;;;8.37;4.57;;;22.90;46.30;;;;;;4991798;28;20449;-44
2023/10/05 10:14:00;;;;;;;7.47;4.23;;;23.00;46.40;;;;;;4993284;28;20445;-45
2023/10/05 10:16:27;;;;;;;10.60;4.80;;;23.10;46.20;;;;;;4992042;28;20449;-48
2023/10/05 10:19:04;;;;;;;11.10;4.40;;;23.10;45.90;;;;;;5003996;28;20940;-46
2023/10/05 10:21:42;;;;;;;7.80;4.50;;;23.20;45.70;;;;;;4997189;28;20452;-45
2023/10/05 10:24:20;;;;;;;9.73;5.17;;;23.40;45.20;;;;;;4988392;28;20818;-47
2023/10/05 10:26:53;;;;;;;11.30;4.40;;;23.50;44.60;;;;;;4988983;28;20445;-45
2023/10/05 10:29:22;;;;;;;9.87;4.60;;;23.50;43.80;;;;;;4987947;28;20468;-49
2023/10/05 10:32:30;;;;;;;10.57;4.80;;;23.20;44.80;;;;;;4988686;28;20458;-45
2023/10/05 10:35:06;;;;;;;6.50;3.50;;;23.20;45.20;;;;;;4989162;28;20445;-47
2023/10/05 10:37:40;;;;;;;9.33;3.63;;;23.30;44.20;;;;;;4991341;28;21043;-45
2023/10/05 10:45:40;;;;;;;7.60;4.23;;;23.80;44.10;;;;;;4994143;28;21000;-47
2023/10/05 10:48:13;;;;;;;7.10;3.97;;;23.90;44.00;;;;;;4985586;28;20457;-47
2023/10/05 10:50:39;;;;;;;7.23;4.47;;;24.00;43.30;;;;;;5005046;28;21148;-47
2023/10/05 10:53:16;;;;;;;7.07;4.30;;;24.00;42.70;;;;;;4992613;28;20424;-46
2023/10/05 10:55:45;;;;;;;5.50;3.70;;;23.80;42.80;;;;;;4984598;28;21068;-46
2023/10/05 10:58:13;;;;;;;6.33;3.90;;;23.80;43.30;;;;;;4993398;28;20445;-46
2023/10/05 11:01:13;;;;;;;10.33;3.73;;;23.80;43.40;;;;;;4988647;28;20441;-49
2023/10/05 11:03:41;;;;;;;10.30;4.00;;;23.70;43.40;;;;;;4992114;28;20445;-45
2023/10/05 11:06:09;;;;;;;7.50;4.10;;;23.80;43.20;;;;;;4988994;28;21260;-45
2023/10/05 11:08:42;;;;;;;9.67;4.03;;;23.70;42.70;;;;;;4992501;28;20925;-48
2023/10/05 11:11:19;;;;;;;7.57;4.10;;;23.50;43.00;;;;;;4988000;28;20612;-48
2023/10/05 11:13:49;;;;;;;7.50;3.87;;;23.40;43.30;;;;;;4980378;28;20430;-47
2023/10/05 11:16:15;;;;;;;8.27;3.90;;;23.50;43.10;;;;;;4992121;28;21165;-48
2023/10/05 11:19:03;;;;;;;7.30;4.57;;;23.60;43.00;;;;;;4991864;28;20445;-46
2023/10/05 11:21:39;;;;;;;6.30;3.07;;;23.60;42.50;;;;;;4980318;28;20971;-44
2023/10/05 11:24:08;;;;;;;9.07;4.90;;;23.40;43.10;;;;;;4996507;28;20453;-48
2023/10/05 11:29:29;;;;;;;6.77;4.00;;;23.40;43.40;;;;;;4992350;28;20448;-49
2023/10/05 11:32:12;;;;;;;6.90;3.70;;;23.40;43.60;;;;;;4994248;28;20448;-46
2023/10/05 11:34:39;;;;;;;9.87;3.80;;;23.60;43.60;;;;;;4997677;28;20430;-48
2023/10/05 11:37:15;;;;;;;7.77;4.07;;;23.60;43.30;;;;;;5006451;28;20543;-49
2023/10/05 11:39:41;;;;;;;8.10;4.17;;;23.60;43.10;;;;;;5001716;28;20437;-49
2023/10/05 11:42:10;;;;;;;9.87;4.60;;;23.70;42.80;;;;;;4988089;28;20496;-47
2023/10/05 11:44:38;;;;;;;9.30;3.40;;;23.70;41.80;;;;;;5000979;28;20536;-44
2023/10/05 11:47:07;;;;;;;6.43;3.53;;;23.70;42.00;;;;;;4989704;28;20469;-48
2023/10/05 11:49:33;;;;;;;7.57;3.00;;;23.70;41.60;;;;;;4988669;28;20503;-45
2023/10/05 11:52:00;;;;;;;5.87;3.13;;;23.60;41.70;;;;;;4988666;28;20459;-47
2023/10/05 11:54:32;;;;;;;11.10;4.10;;;23.60;41.90;;;;;;5004719;28;20208;-48
2023/10/05 11:56:59;;;;;;;10.63;4.37;;;23.70;41.60;;;;;;4992970;28;20488;-46
2023/10/05 11:59:28;;;;;;;6.53;3.77;;;23.80;41.50;;;;;;4996657;28;20465;-47
2023/10/05 12:01:55;;;;;;;6.57;3.47;;;23.70;41.80;;;;;;4990619;28;20489;-48
2023/10/05 12:04:20;;;;;;;7.40;3.43;;;23.60;42.50;;;;;;4991424;28;20804;-48
2023/10/05 12:06:52;;;;;;;9.47;4.37;;;23.70;42.50;;;;;;4994755;28;20450;-47
2023/10/05 12:09:27;;;;;;;10.43;3.80;;;23.60;42.20;;;;;;4992806;28;20280;-45
2023/10/05 12:11:58;;;;;;;8.50;3.30;;;23.40;42.20;;;;;;4992288;28;20453;-47
2023/10/05 12:14:27;;;;;;;9.43;4.17;;;23.50;42.40;;;;;;5005993;28;20965;-45
2023/10/05 12:16:56;;;;;;;11.63;4.67;;;23.40;42.20;;;;;;4991231;28;20452;-48
2023/10/05 12:19:28;;;;;;;8.07;3.37;;;23.40;42.20;;;;;;4997816;28;20826;-48
2023/10/05 12:22:06;;;;;;;8.20;4.63;;;23.00;42.90;;;;;;5006588;28;20452;-46
2023/10/05 12:24:33;;;;;;;9.93;3.80;;;23.00;43.00;;;;;;4997983;28;20476;-46
2023/10/05 12:26:59;;;;;;;8.03;3.93;;;23.10;43.10;;;;;;5003773;28;20462;-46
2023/10/05 12:29:29;;;;;;;6.23;3.50;;;23.10;42.80;;;;;;4995677;28;20440;-46
2023/10/05 12:32:00;;;;;;;8.03;3.27;;;23.10;42.70;;;;;;4990589;28;20519;-46
2023/10/05 12:34:27;;;;;;;10.60;4.50;;;23.10;42.60;;;;;;4991395;28;20480;-46
2023/10/05 12:36:53;;;;;;;5.30;3.30;;;23.20;42.80;;;;;;4995741;28;20473;-45
2023/10/05 12:39:20;;;;;;;9.80;3.73;;;23.20;42.60;;;;;;4994831;28;20441;-46
2023/10/05 12:41:47;;;;;;;10.77;3.73;;;23.20;42.70;;;;;;4988756;28;20201;-48
2023/10/05 12:44:13;;;;;;;5.50;3.87;;;23.00;43.00;;;;;;4983154;28;20486;-46
2023/10/05 12:46:45;;;;;;;8.27;3.80;;;23.10;43.20;;;;;;4994645;28;20437;-45
2023/10/05 12:49:15;;;;;;;9.00;3.47;;;23.00;43.10;;;;;;4989700;28;20454;-48
2023/10/05 12:51:42;;;;;;;9.40;4.07;;;23.00;43.30;;;;;;4992807;28;20508;-47
2023/10/05 12:54:09;;;;;;;6.70;3.17;;;23.00;43.50;;;;;;5000701;28;20447;-49
2023/10/05 12:56:38;;;;;;;11.97;3.53;;;23.10;43.40;;;;;;4989345;28;20484;-51
2023/10/05 12:59:07;;;;;;;6.10;3.47;;;23.10;43.30;;;;;;4989547;28;20474;-45
2023/10/05 13:01:41;;;;;;;7.43;3.57;;;23.10;43.20;;;;;;4995281;28;20473;-45
2023/10/05 13:04:08;;;;;;;8.60;3.60;;;23.10;43.40;;;;;;4997200;28;20460;-50
2023/10/05 13:06:34;;;;;;;6.60;3.73;;;23.10;43.40;;;;;;5002571;28;20464;-47
2023/10/05 13:09:03;;;;;;;9.70;3.50;;;23.10;43.50;;;;;;5000982;28;20815;-45
2023/10/05 13:11:30;;;;;;;8.20;3.77;;;23.20;43.50;;;;;;4995229;28;20201;-47
2023/10/05 13:13:56;;;;;;;6.57;3.53;;;23.20;43.50;;;;;;4991489;28;20532;-46
2023/10/05 13:16:21;;;;;;;8.43;3.97;;;23.20;43.60;;;;;;4994544;28;20533;-46
2023/10/05 13:18:50;;;;;;;8.57;3.73;;;23.20;43.40;;;;;;4995686;28;20256;-47
2023/10/05 13:21:16;;;;;;;7.97;3.60;;;23.20;43.30;;;;;;4993307;28;20203;-46
2023/10/05 13:23:42;;;;;;;5.00;3.40;;;23.20;43.20;;;;;;4999319;28;20944;-47
2023/10/05 13:26:08;;;;;;;5.37;3.53;;;23.20;43.10;;;;;;4987101;28;20485;-47
2023/10/05 13:28:34;;;;;;;6.40;3.30;;;23.30;43.90;;;;;;4993248;28;20441;-47
2023/10/05 13:31:05;;;;;;;8.20;3.57;;;23.20;43.10;;;;;;5007916;28;20244;-45
2023/10/05 13:33:34;;;;;;;10.30;3.90;;;23.20;43.00;;;;;;4994041;28;20650;-48
2023/10/05 13:36:04;;;;;;;9.00;3.90;;;23.20;43.40;;;;;;5003310;28;20937;-48
2023/10/05 13:38:33;;;;;;;5.87;3.73;;;23.20;43.30;;;;;;4999155;28;20605;-46
2023/10/05 13:43:33;;;;;;;4.97;3.03;;;23.10;43.10;;;;;;4985453;28;21128;-51